Time;durP1;ratioP1;P1;durP2;ratioP2;P2;SDS_P1;SDS_P2;PMS_P1;PMS_P2;Temp;Humidity;BMP_temperature;BMP_pressure;BME280_temperature;BME280_humidity;BME280_pressure;Samples;Min_cycle;Max_cycle;Signal;HPM_P1;HPM_P2
2022/04/15 00:02:12;;;;;;;61.85;29.72;;;;;;;8.01;100.00;101174.71;1709037;82;21086;-63
2022/04/15 00:04:40;;;;;;;75.75;29.92;;;;;;;7.78;100.00;101168.80;1708819;82;21066;-63
2022/04/15 00:07:07;;;;;;;74.35;29.52;;;;;;;7.65;100.00;101163.10;1708940;84;21038;-63
2022/04/15 00:09:35;;;;;;;60.88;27.40;;;;;;;7.69;100.00;101167.28;1708781;82;21249;-63
2022/04/15 00:12:07;;;;;;;66.17;28.73;;;;;;;7.76;100.00;101166.26;1708847;82;21144;-63
2022/04/15 00:14:37;;;;;;;60.67;27.35;;;;;;;7.70;100.00;101166.39;1708930;83;20995;-62
2022/04/15 00:17:06;;;;;;;59.13;29.00;;;;;;;7.76;100.00;101167.98;1708835;82;21035;-62
2022/04/15 00:19:33;;;;;;;59.73;29.42;;;;;;;7.71;100.00;101171.94;1709052;83;21082;-63
2022/04/15 00:22:03;;;;;;;51.08;27.10;;;;;;;7.66;100.00;101175.02;1708669;82;21815;-63
2022/04/15 00:24:30;;;;;;;64.53;27.00;;;;;;;7.47;100.00;101175.86;1708876;83;21082;-63
2022/04/15 00:26:57;;;;;;;58.52;27.22;;;;;;;7.34;100.00;101173.98;1709035;82;21046;-63
2022/04/15 00:29:28;;;;;;;48.63;26.40;;;;;;;7.43;100.00;101171.67;1708722;82;21832;-62
2022/04/15 00:31:57;;;;;;;43.83;24.25;;;;;;;7.43;100.00;101168.66;1708965;83;21039;-63
2022/04/15 00:34:24;;;;;;;43.92;23.20;;;;;;;7.41;100.00;101166.57;1708789;82;21074;-62
2022/04/15 00:36:51;;;;;;;41.85;23.52;;;;;;;7.47;100.00;101166.05;1713052;82;21626;-62
2022/04/15 00:39:18;;;;;;;45.73;21.87;;;;;;;7.41;100.00;101165.73;1726429;82;21057;-63
2022/04/15 00:41:46;;;;;;;39.78;21.90;;;;;;;7.39;100.00;101168.32;1747323;80;21500;-63
2022/04/15 00:44:15;;;;;;;42.00;21.40;;;;;;;7.60;100.00;101175.16;1747118;81;21104;-62
2022/04/15 00:46:43;;;;;;;47.25;22.17;;;;;;;7.50;100.00;101173.66;1747103;81;21048;-62
2022/04/15 00:49:10;;;;;;;49.63;21.73;;;;;;;7.34;100.00;101177.83;1762460;81;21541;-63
2022/04/15 00:51:39;;;;;;;46.63;22.37;;;;;;;7.31;100.00;101180.44;1777788;80;21076;-63
2022/04/15 00:54:10;;;;;;;46.33;22.42;;;;;;;7.36;100.00;101179.92;1777498;81;21076;-63
2022/04/15 00:56:39;;;;;;;54.18;26.90;;;;;;;7.35;100.00;101183.79;1777720;80;21081;-63
2022/04/15 00:59:08;;;;;;;65.72;30.08;;;;;;;7.32;100.00;101186.39;1777407;79;21538;-63
2022/04/15 01:01:41;;;;;;;69.25;29.95;;;;;;;7.22;100.00;101180.63;1777648;79;21037;-63
2022/04/15 01:04:10;;;;;;;56.33;28.90;;;;;;;7.14;100.00;101174.38;1777538;80;21537;-63
2022/04/15 01:06:39;;;;;;;56.50;28.80;;;;;;;7.09;100.00;101181.28;1777821;81;21029;-63
2022/04/15 01:09:09;;;;;;;58.65;27.93;;;;;;;7.14;100.00;101180.77;1777467;81;21076;-63
2022/04/15 01:11:41;;;;;;;57.43;27.00;;;;;;;7.08;100.00;101182.17;1777658;80;21100;-63
2022/04/15 01:14:10;;;;;;;48.73;26.37;;;;;;;7.00;100.00;101179.75;1777523;81;21486;-63
2022/04/15 01:16:40;;;;;;;56.75;27.90;;;;;;;6.97;100.00;101186.19;1777777;80;21112;-63
2022/04/15 01:19:08;;;;;;;49.23;27.48;;;;;;;7.05;100.00;101183.49;1777636;80;21501;-63
2022/04/15 01:21:38;;;;;;;49.90;25.92;;;;;;;7.11;100.00;101188.50;1777901;81;21080;-63
2022/04/15 01:24:06;;;;;;;52.08;27.50;;;;;;;7.25;100.00;101181.84;1777817;79;21041;-63
2022/04/15 01:26:33;;;;;;;53.38;28.42;;;;;;;7.27;100.00;101181.38;1777696;80;21036;-63
2022/04/15 01:29:03;;;;;;;59.18;31.23;;;;;;;7.16;100.00;101183.31;1777882;80;21025;-63
2022/04/15 01:31:31;;;;;;;61.92;31.75;;;;;;;7.13;100.00;101180.80;1777909;79;21076;-63
2022/04/15 01:34:01;;;;;;;63.38;30.10;;;;;;;7.13;100.00;101183.36;1774701;79;21473;-63
2022/04/15 01:36:28;;;;;;;54.13;28.80;;;;;;;7.06;100.00;101186.48;1773117;79;21541;-63
2022/04/15 01:38:58;;;;;;;55.95;28.65;;;;;;;7.05;100.00;101187.78;1761871;81;21034;-63
2022/04/15 01:41:27;;;;;;;46.35;26.37;;;;;;;7.16;100.00;101179.03;1762093;81;21012;-63
2022/04/15 01:43:55;;;;;;;39.20;24.55;;;;;;;7.28;100.00;101179.23;1761926;81;21049;-63
2022/04/15 01:46:22;;;;;;;40.83;22.52;;;;;;;7.19;100.00;101178.12;1754672;81;21069;-64
2022/04/15 01:48:49;;;;;;;37.98;21.85;;;;;;;7.22;100.00;101180.19;1751724;82;21045;-63
2022/04/15 01:51:16;;;;;;;34.48;20.23;;;;;;;7.25;100.00;101173.32;1751766;82;21129;-63
2022/04/15 01:53:44;;;;;;;36.25;21.35;;;;;;;7.18;100.00;101179.84;1751968;82;21085;-62
2022/04/15 01:56:11;;;;;;;35.03;18.35;;;;;;;7.14;100.00;101179.94;1751725;82;21049;-63
2022/04/15 01:58:39;;;;;;;31.37;19.12;;;;;;;7.26;100.00;101178.42;1751770;81;21069;-62
2022/04/15 02:01:08;;;;;;;28.87;18.02;;;;;;;7.28;100.00;101186.05;1738280;82;21074;-63
2022/04/15 02:03:35;;;;;;;30.40;19.05;;;;;;;7.17;100.00;101179.42;1738342;82;21622;-63
2022/04/15 02:06:03;;;;;;;40.25;19.10;;;;;;;7.10;100.00;101184.27;1738446;82;21030;-63
2022/04/15 02:08:31;;;;;;;36.17;19.15;;;;;;;7.19;100.00;101182.80;1730653;82;21034;-62
2022/04/15 02:11:00;;;;;;;41.75;18.98;;;;;;;7.23;100.00;101185.70;1751892;82;21019;-62
2022/04/15 02:13:27;;;;;;;43.33;21.02;;;;;;;7.22;100.00;101184.48;1751810;82;21684;-63
2022/04/15 02:15:55;;;;;;;57.50;21.07;;;;;;;7.22;100.00;101187.88;1751723;82;21046;-63
2022/04/15 02:18:26;;;;;;;42.15;20.92;;;;;;;7.31;100.00;101193.24;1751664;82;21510;-63
2022/04/15 02:20:53;;;;;;;42.25;19.92;;;;;;;7.25;100.00;101197.65;1751826;82;21034;-63
2022/04/15 02:23:22;;;;;;;46.92;20.35;;;;;;;7.23;100.00;101195.11;1751960;82;21013;-63
2022/04/15 02:25:49;;;;;;;45.17;20.85;;;;;;;7.22;100.00;101196.83;1751741;82;21078;-63
2022/04/15 02:28:16;;;;;;;38.02;20.92;;;;;;;7.15;100.00;101198.25;1751643;82;21038;-63
2022/04/15 02:30:49;;;;;;;39.40;21.62;;;;;;;7.20;100.00;101206.27;1751837;82;21015;-63
2022/04/15 02:33:17;;;;;;;39.95;22.05;;;;;;;7.24;100.00;101203.22;1751850;82;21565;-63
2022/04/15 02:35:45;;;;;;;32.75;20.17;;;;;;;7.26;100.00;101201.88;1751907;82;20999;-63
2022/04/15 02:38:12;;;;;;;40.90;21.23;;;;;;;7.28;100.00;101205.25;1751653;81;21073;-63
2022/04/15 02:40:39;;;;;;;34.65;20.88;;;;;;;7.32;100.00;101208.16;1751719;82;21037;-63
2022/04/15 02:43:08;;;;;;;41.73;20.10;;;;;;;7.40;100.00;101218.69;1751900;82;21030;-63
2022/04/15 02:45:37;;;;;;;35.03;20.23;;;;;;;7.35;100.00;101209.40;1751637;82;21521;-63
2022/04/15 02:48:06;;;;;;;39.40;18.77;;;;;;;7.31;100.00;101221.86;1751691;82;21045;-63
2022/04/15 02:50:34;;;;;;;36.90;18.62;;;;;;;7.30;100.00;101225.28;1715129;82;21019;-63
2022/04/15 02:53:02;;;;;;;44.60;17.82;;;;;;;7.25;100.00;101225.81;1708776;82;21015;-64
2022/04/15 02:55:29;;;;;;;30.62;17.27;;;;;;;7.30;100.00;101225.28;1708984;82;21097;-63
2022/04/15 02:57:57;;;;;;;38.25;17.07;;;;;;;7.37;100.00;101229.42;1708796;82;21011;-63
2022/04/15 03:00:24;;;;;;;53.28;18.45;;;;;;;7.38;100.00;101227.25;1709162;82;21062;-63
2022/04/15 03:02:52;;;;;;;39.30;18.02;;;;;;;7.46;100.00;101226.70;1708890;82;21121;-63
2022/04/15 03:05:19;;;;;;;30.75;18.70;;;;;;;7.46;100.00;101231.82;1708857;82;21035;-63
2022/04/15 03:07:46;;;;;;;42.78;19.50;;;;;;;7.54;100.00;101236.36;1709112;82;21107;-63
2022/04/15 03:10:15;;;;;;;36.60;19.45;;;;;;;7.67;100.00;101236.95;1708728;82;21082;-63
2022/04/15 03:12:42;;;;;;;34.90;19.60;;;;;;;7.80;100.00;101234.52;1709282;82;21472;-63
2022/04/15 03:15:10;;;;;;;38.40;18.42;;;;;;;7.89;100.00;101236.52;1708866;84;21011;-63
2022/04/15 03:17:38;;;;;;;52.58;18.25;;;;;;;7.81;100.00;101234.11;1708840;83;21086;-63
2022/04/15 03:20:09;;;;;;;45.70;17.92;;;;;;;7.61;100.00;101240.91;1708816;83;21074;-63
2022/04/15 03:22:41;;;;;;;45.30;17.12;;;;;;;7.59;100.00;101243.50;1708950;83;21551;-63
2022/04/15 03:25:15;;;;;;;38.55;17.98;;;;;;;7.68;100.00;101238.61;1708966;83;21038;-63
2022/04/15 03:27:42;;;;;;;42.15;16.80;;;;;;;7.76;100.00;101244.88;1707923;82;21086;-63
2022/04/15 03:30:11;;;;;;;47.75;16.30;;;;;;;7.73;100.00;101244.50;1690764;82;21097;-63
2022/04/15 03:32:50;;;;;;;33.78;16.42;;;;;;;7.71;100.00;101244.14;1709113;82;21071;-63
2022/04/15 03:35:21;;;;;;;49.42;16.30;;;;;;;7.85;100.00;101247.67;1708741;82;21106;-63
2022/04/15 03:37:52;;;;;;;38.45;16.17;;;;;;;7.90;100.00;101243.31;1713594;82;21042;-63
2022/04/15 03:40:20;;;;;;;59.58;16.75;;;;;;;7.97;100.00;101248.28;1728103;82;21042;-63
2022/04/15 03:42:51;;;;;;;37.70;16.15;;;;;;;7.97;100.00;101250.01;1728314;82;21053;-63
2022/04/15 03:45:19;;;;;;;35.30;15.85;;;;;;;7.99;100.00;101250.37;1728443;82;21487;-63
2022/04/15 03:47:50;;;;;;;56.75;17.80;;;;;;;8.02;100.00;101246.45;1728242;82;21510;-63
2022/04/15 03:50:17;;;;;;;38.30;16.30;;;;;;;8.12;100.00;101253.95;1728438;82;21573;-63
2022/04/15 03:52:47;;;;;;;39.25;15.55;;;;;;;8.05;100.00;101255.81;1728333;83;21026;-63
2022/04/15 03:55:20;;;;;;;34.92;16.37;;;;;;;8.06;100.00;101254.92;1728492;82;21037;-63
2022/04/15 03:57:48;;;;;;;28.25;15.55;;;;;;;8.12;100.00;101261.64;1734020;82;21026;-63
2022/04/15 04:00:20;;;;;;;45.35;15.55;;;;;;;8.12;100.00;101258.63;1733684;82;21077;-64
2022/04/15 04:02:50;;;;;;;28.62;16.15;;;;;;;7.96;100.00;101257.28;1733453;82;21042;-63
2022/04/15 04:05:19;;;;;;;34.30;16.48;;;;;;;8.30;100.00;101260.40;1706959;83;21053;-63
2022/04/15 04:07:48;;;;;;;35.38;15.58;;;;;;;8.39;100.00;101262.33;1733905;82;21553;-64
2022/04/15 04:10:16;;;;;;;29.15;15.03;;;;;;;8.38;100.00;101263.19;1729255;83;21093;-64
2022/04/15 04:12:48;;;;;;;30.55;14.65;;;;;;;8.34;100.00;101260.28;1726591;83;21026;-63
2022/04/15 04:15:16;;;;;;;25.60;15.28;;;;;;;8.48;100.00;101263.02;1747139;82;21119;-64
2022/04/15 04:17:44;;;;;;;32.80;15.23;;;;;;;8.55;100.00;101265.83;1746843;81;21041;-63
2022/04/15 04:20:12;;;;;;;27.67;14.98;;;;;;;8.67;100.00;101270.67;1747081;81;21001;-62
2022/04/15 04:22:40;;;;;;;31.75;14.68;;;;;;;8.75;100.00;101270.05;1747301;82;21052;-62
2022/04/15 04:25:10;;;;;;;26.45;14.28;;;;;;;8.92;100.00;101264.52;1747036;81;21001;-63
2022/04/15 04:27:41;;;;;;;43.40;15.48;;;;;;;8.99;100.00;101271.16;1747073;81;20997;-63
2022/04/15 04:30:12;;;;;;;23.10;14.07;;;;;;;8.92;100.00;101272.63;1747094;80;21041;-63
2022/04/15 04:32:40;;;;;;;20.40;13.90;;;;;;;8.91;100.00;101273.09;1747086;81;21036;-63
2022/04/15 04:35:09;;;;;;;26.45;13.95;;;;;;;9.18;100.00;101273.26;1746867;81;21096;-62
2022/04/15 04:37:37;;;;;;;25.40;14.23;;;;;;;9.30;100.00;101267.80;1745589;81;21506;-63
2022/04/15 04:40:06;;;;;;;25.88;13.43;;;;;;;9.42;100.00;101270.03;1743901;82;21096;-63
2022/04/15 04:42:34;;;;;;;19.37;13.10;;;;;;;9.53;100.00;101276.19;1744135;81;20986;-63
2022/04/15 04:45:02;;;;;;;18.95;12.98;;;;;;;9.68;100.00;101274.91;1744157;81;21044;-62
2022/04/15 04:47:30;;;;;;;20.62;12.37;;;;;;;9.75;100.00;101279.43;1744145;82;21033;-63
2022/04/15 04:50:01;;;;;;;20.15;13.03;;;;;;;9.79;100.00;101272.89;1744166;81;21021;-63
2022/04/15 04:52:29;;;;;;;22.48;15.00;;;;;;;10.02;100.00;101271.37;1765895;79;21525;-62
2022/04/15 04:54:57;;;;;;;22.17;15.38;;;;;;;10.29;100.00;101267.58;1774646;81;21561;-63
2022/04/15 04:57:25;;;;;;;19.10;13.93;;;;;;;10.46;100.00;101269.64;1775027;81;21030;-62
2022/04/15 04:59:53;;;;;;;19.82;14.30;;;;;;;10.43;100.00;101266.73;1774602;80;21187;-63
2022/04/15 05:02:21;;;;;;;19.87;14.35;;;;;;;10.58;100.00;101268.84;1774814;81;21060;-63
2022/04/15 05:04:49;;;;;;;20.12;14.38;;;;;;;10.47;100.00;101272.63;1774594;80;21079;-63
2022/04/15 05:07:16;;;;;;;18.35;12.28;;;;;;;10.71;100.00;101263.29;1774645;80;21056;-62
2022/04/15 05:09:45;;;;;;;18.27;13.00;;;;;;;10.98;100.00;101266.22;1774817;80;21533;-62
2022/04/15 05:12:12;;;;;;;18.17;13.78;;;;;;;11.22;100.00;101274.86;1774747;81;21522;-62
2022/04/15 05:14:40;;;;;;;20.45;14.38;;;;;;;11.38;100.00;101278.20;1774262;79;21100;-64
2022/04/15 05:17:08;;;;;;;18.15;13.00;;;;;;;11.19;100.00;101274.11;1802027;79;21000;-63
2022/04/15 05:19:37;;;;;;;20.95;13.40;;;;;;;11.27;100.00;101271.27;1806299;79;21004;-63
2022/04/15 05:22:05;;;;;;;18.45;13.60;;;;;;;11.29;100.00;101272.89;1806614;79;21058;-63
2022/04/15 05:24:33;;;;;;;19.35;13.18;;;;;;;11.30;100.00;101279.75;1806309;79;21058;-62
2022/04/15 05:27:00;;;;;;;19.12;13.32;;;;;;;11.69;100.00;101276.64;1806559;79;21027;-62
2022/04/15 05:29:29;;;;;;;23.98;15.90;;;;;;;11.52;100.00;101273.85;1806274;79;21075;-62
2022/04/15 05:31:57;;;;;;;16.80;12.03;;;;;;;11.41;100.00;101276.36;1806258;79;21020;-62
2022/04/15 05:34:27;;;;;;;17.80;13.10;;;;;;;11.67;100.00;101283.59;1806571;79;21063;-63
2022/04/15 05:36:56;;;;;;;16.80;12.63;;;;;;;11.65;100.00;101278.94;1806420;79;21492;-63
2022/04/15 05:39:24;;;;;;;15.85;12.07;;;;;;;12.02;100.00;101270.73;1806291;79;21024;-63
2022/04/15 05:41:52;;;;;;;16.73;12.05;;;;;;;12.05;100.00;101267.64;1794489;79;21090;-63
2022/04/15 05:44:19;;;;;;;17.27;12.00;;;;;;;12.31;100.00;101272.64;1770282;80;21037;-63
2022/04/15 05:46:48;;;;;;;15.03;11.95;;;;;;;12.51;100.00;101278.31;1764554;80;21022;-63
2022/04/15 05:49:16;;;;;;;16.15;11.53;;;;;;;12.64;100.00;101276.06;1771438;80;21012;-63
2022/04/15 05:51:49;;;;;;;15.28;10.98;;;;;;;12.73;100.00;101274.84;1773564;80;21000;-64
2022/04/15 05:54:14;;;;;;;13.50;10.85;;;;;;;12.99;100.00;101276.36;1763081;80;21538;-63
2022/04/15 05:56:42;;;;;;;14.33;10.78;;;;;;;13.12;100.00;101276.23;1764421;80;21471;-63
2022/04/15 05:59:10;;;;;;;19.23;11.22;;;;;;;13.25;100.00;101280.42;1759883;80;21179;-63
2022/04/15 06:01:37;;;;;;;14.98;10.95;;;;;;;13.50;100.00;101284.09;1764918;80;20997;-62
2022/04/15 06:04:04;;;;;;;17.23;11.50;;;;;;;13.55;100.00;101290.38;1768910;80;21047;-64
2022/04/15 06:06:34;;;;;;;15.13;12.23;;;;;;;13.55;100.00;101289.92;1759822;80;21003;-63
2022/04/15 06:09:03;;;;;;;14.55;12.10;;;;;;;13.56;100.00;101286.88;1769226;79;21021;-63
2022/04/15 06:11:30;;;;;;;13.83;11.05;;;;;;;13.60;100.00;101288.42;1775135;79;21048;-63
2022/04/15 06:14:00;;;;;;;20.55;12.05;;;;;;;13.71;100.00;101292.67;1783637;79;21069;-63
2022/04/15 06:16:32;;;;;;;19.50;12.95;;;;;;;13.76;100.00;101290.70;1774978;79;20968;-63
2022/04/15 06:18:56;;;;;;;18.23;12.30;;;;;;;13.89;100.00;101295.33;1780958;79;21013;-63
2022/04/15 06:21:26;;;;;;;24.50;12.10;;;;;;;13.93;100.00;101303.34;1779898;79;21052;-63
2022/04/15 06:23:54;;;;;;;16.42;11.57;;;;;;;14.01;100.00;101298.22;1792676;79;20988;-62
2022/04/15 06:26:22;;;;;;;19.92;12.82;;;;;;;14.07;100.00;101304.87;1768894;80;21111;-62
2022/04/15 06:28:49;;;;;;;17.92;12.13;;;;;;;14.16;100.00;101301.84;1773909;80;21478;-63
2022/04/15 06:31:18;;;;;;;21.10;13.28;;;;;;;14.08;100.00;101301.81;1766771;80;20975;-63
2022/04/15 06:33:45;;;;;;;22.80;14.13;;;;;;;14.56;100.00;101296.11;1759610;80;21010;-63
2022/04/15 06:36:12;;;;;;;22.35;14.18;;;;;;;14.72;100.00;101299.23;1774079;80;21046;-62
2022/04/15 06:38:41;;;;;;;22.27;13.85;;;;;;;14.91;100.00;101298.73;1751643;80;21102;-62
2022/04/15 06:41:08;;;;;;;22.67;13.93;;;;;;;14.96;100.00;101295.89;1742209;81;21522;-64
2022/04/15 06:43:36;;;;;;;25.97;14.78;;;;;;;15.17;100.00;101298.72;1767192;81;21076;-63
2022/04/15 06:46:05;;;;;;;28.98;15.45;;;;;;;15.70;100.00;101298.15;1767321;79;21085;-63
2022/04/15 06:48:32;;;;;;;24.47;15.23;;;;;;;15.85;100.00;101303.01;1738370;82;21026;-63
2022/04/15 06:51:01;;;;;;;26.80;14.80;;;;;;;15.84;100.00;101297.92;1770194;80;21006;-64
2022/04/15 06:53:30;;;;;;;27.13;15.48;;;;;;;15.79;100.00;101301.59;1738234;82;21038;-64
2022/04/15 06:55:57;;;;;;;31.55;16.37;;;;;;;15.93;100.00;101302.60;1743964;82;21042;-63
2022/04/15 06:58:25;;;;;;;25.23;15.88;;;;;;;15.91;100.00;101297.48;1743276;81;21624;-63
2022/04/15 07:00:53;;;;;;;34.05;18.10;;;;;;;16.11;100.00;101302.90;1768245;81;21082;-63
2022/04/15 07:03:20;;;;;;;44.60;22.00;;;;;;;16.22;100.00;101310.95;1763974;80;21047;-63
2022/04/15 07:05:49;;;;;;;42.25;21.25;;;;;;;16.16;100.00;101315.19;1759874;81;21166;-64
2022/04/15 07:08:16;;;;;;;43.33;20.90;;;;;;;16.19;100.00;101309.81;1760156;81;21027;-64
2022/04/15 07:10:45;;;;;;;36.28;19.67;;;;;;;16.06;100.00;101308.82;1753676;81;21480;-63
2022/04/15 07:13:12;;;;;;;32.25;20.20;;;;;;;16.55;100.00;101315.66;1756775;81;21006;-64
2022/04/15 07:15:41;;;;;;;33.25;19.62;;;;;;;16.74;100.00;101318.05;1759269;81;21526;-64
2022/04/15 07:18:09;;;;;;;40.23;22.98;;;;;;;16.91;100.00;101319.27;1761180;81;21024;-65
2022/04/15 07:20:37;;;;;;;37.48;21.40;;;;;;;16.86;100.00;101323.05;1754670;81;20970;-64
2022/04/15 07:23:05;;;;;;;39.98;22.07;;;;;;;17.10;100.00;101322.09;1741672;82;21042;-64
2022/04/15 07:25:34;;;;;;;41.18;22.73;;;;;;;16.84;100.00;101323.12;1741990;82;21097;-64
2022/04/15 07:28:02;;;;;;;45.40;25.48;;;;;;;16.97;100.00;101324.11;1742595;81;21065;-64
2022/04/15 07:30:30;;;;;;;44.10;24.98;;;;;;;17.40;100.00;101325.95;1752606;81;21020;-63
2022/04/15 07:32:59;;;;;;;46.33;24.05;;;;;;;17.48;100.00;101325.46;1720849;82;21064;-64
2022/04/15 07:35:28;;;;;;;46.75;22.48;;;;;;;17.45;100.00;101330.87;1757684;81;21057;-64
2022/04/15 07:37:57;;;;;;;45.03;24.70;;;;;;;17.60;100.00;101328.19;1744543;81;21048;-64
2022/04/15 07:40:28;;;;;;;50.50;26.37;;;;;;;17.56;100.00;101327.17;1700667;84;21554;-63
2022/04/15 07:43:01;;;;;;;46.08;25.10;;;;;;;17.72;100.00;101330.52;1728986;82;21081;-64
2022/04/15 07:45:28;;;;;;;;;;;;;;;17.79;100.00;101330.49;1732088;82;21037;-64
2022/04/15 07:47:56;;;;;;;42.83;24.40;;;;;;;18.38;99.24;101329.48;1729135;82;20464;-64
2022/04/15 07:50:25;;;;;;;39.33;21.95;;;;;;;18.70;96.05;101327.41;1728318;82;21507;-63
2022/04/15 07:52:57;;;;;;;45.40;22.07;;;;;;;18.87;90.90;101326.33;1729142;82;21050;-63
2022/04/15 07:55:26;;;;;;;42.40;21.45;;;;;;;18.97;89.15;101323.95;1728053;82;21097;-63
2022/04/15 07:57:54;;;;;;;39.92;20.97;;;;;;;19.00;90.56;101325.89;1726291;82;21014;-63
2022/04/15 08:00:23;;;;;;;37.15;18.98;;;;;;;19.17;89.70;101318.23;1731690;81;21534;-63
2022/04/15 08:02:50;;;;;;;31.73;18.15;;;;;;;18.81;88.42;101328.03;1729385;82;20986;-64
2022/04/15 08:05:18;;;;;;;29.65;18.07;;;;;;;18.92;88.04;101326.88;1734266;82;21046;-64
2022/04/15 08:07:45;;;;;;;28.42;17.23;;;;;;;19.01;86.08;101323.64;1727673;82;21018;-65
2022/04/15 08:10:12;;;;;;;32.60;17.10;;;;;;;18.97;86.96;101320.86;1726500;82;21536;-64
2022/04/15 08:12:40;;;;;;;38.70;18.77;;;;;;;18.96;85.79;101321.81;1739035;82;21077;-63
2022/04/15 08:15:09;;;;;;;25.77;16.10;;;;;;;18.69;84.50;101323.59;1741937;82;21042;-64
2022/04/15 08:17:37;;;;;;;30.60;16.20;;;;;;;18.79;82.36;101324.69;1727365;82;21122;-64
2022/04/15 08:20:07;;;;;;;36.53;18.27;;;;;;;19.06;86.00;101325.10;1727397;82;21007;-64
2022/04/15 08:22:37;;;;;;;28.20;15.98;;;;;;;18.58;86.38;101319.09;1729429;82;21010;-64
2022/04/15 08:25:07;;;;;;;23.73;14.53;;;;;;;18.74;84.42;101317.14;1728027;82;21546;-63
2022/04/15 08:27:34;;;;;;;22.05;13.85;;;;;;;18.98;83.06;101311.29;1726523;82;21024;-64
2022/04/15 08:30:02;;;;;;;24.80;14.23;;;;;;;19.14;86.17;101306.70;1728340;82;21002;-63
2022/04/15 08:32:34;;;;;;;26.45;13.10;;;;;;;19.13;82.68;101308.11;1728807;82;20994;-63
2022/04/15 08:35:04;;;;;;;21.63;11.37;;;;;;;19.13;82.18;101305.02;1727897;82;21106;-63
2022/04/15 08:37:33;;;;;;;19.67;12.63;;;;;;;19.12;83.38;101309.03;1726520;82;21057;-65
2022/04/15 08:40:01;;;;;;;19.57;11.35;;;;;;;19.26;81.15;101307.66;1739789;80;21020;-63
2022/04/15 08:42:30;;;;;;;14.33;9.68;;;;;;;19.41;81.41;101301.37;1723822;82;21037;-63
2022/04/15 08:44:57;;;;;;;17.15;9.53;;;;;;;19.29;78.20;101299.60;1721306;82;21038;-64
2022/04/15 08:47:27;;;;;;;12.65;8.00;;;;;;;19.07;80.03;101309.34;1721132;82;21082;-63
2022/04/15 08:49:53;;;;;;;12.78;8.35;;;;;;;18.65;75.97;101307.78;1716591;82;21026;-64
2022/04/15 08:52:23;;;;;;;13.80;8.43;;;;;;;18.40;76.35;101313.28;1708271;84;21562;-63
2022/04/15 08:54:52;;;;;;;14.38;8.48;;;;;;;18.52;75.24;101307.28;1708107;84;21735;-63
2022/04/15 08:57:19;;;;;;;12.03;7.97;;;;;;;18.66;76.03;101308.16;1708185;84;21074;-63
2022/04/15 08:59:46;;;;;;;12.13;7.87;;;;;;;18.93;76.13;101308.13;1709085;82;21592;-64
2022/04/15 09:02:31;;;;;;;10.00;7.10;;;;;;;18.95;78.08;101304.95;1708890;83;21042;-63
2022/04/15 09:04:59;;;;;;;13.50;7.60;;;;;;;19.03;75.71;101300.05;1709229;82;21058;-63
2022/04/15 09:07:31;;;;;;;8.95;6.72;;;;;;;19.23;75.78;101307.84;1708868;84;21050;-63
2022/04/15 09:10:01;;;;;;;9.23;7.17;;;;;;;19.10;76.23;101303.94;1709139;82;21042;-60
2022/04/15 09:12:30;;;;;;;9.95;7.40;;;;;;;18.73;77.27;101310.72;1727274;82;21034;-61
2022/04/15 09:15:15;;;;;;;10.78;7.40;;;;;;;18.70;76.95;101300.03;1727582;81;21312;-60
2022/04/15 09:17:49;;;;;;;9.85;7.03;;;;;;;18.77;76.68;101301.76;1732639;81;21035;-61
2022/04/15 09:20:17;;;;;;;;;;;;;;;18.73;76.14;101298.98;1766365;81;21039;-62
2022/04/15 09:22:47;;;;;;;13.15;7.42;;;;;;;18.62;75.53;101299.70;1764359;80;20416;-61
2022/04/15 09:25:15;;;;;;;12.05;8.15;;;;;;;18.76;77.13;101300.92;1738299;81;21027;-61
2022/04/15 09:27:44;;;;;;;11.60;8.20;;;;;;;18.84;78.64;101301.77;1737964;82;21051;-61
2022/04/15 09:30:13;;;;;;;12.23;7.37;;;;;;;18.33;79.09;101297.21;1738053;82;21034;-60
2022/04/15 09:32:41;;;;;;;10.65;7.10;;;;;;;18.00;81.41;101294.95;1738174;82;21074;-60
2022/04/15 09:35:13;;;;;;;10.30;7.30;;;;;;;17.90;82.55;101292.09;1738009;82;21035;-61
2022/04/15 09:37:43;;;;;;;11.90;7.15;;;;;;;17.98;82.20;101294.22;1751580;82;21010;-60
2022/04/15 09:40:26;;;;;;;9.20;7.05;;;;;;;18.06;81.85;101293.27;1751794;81;21066;-60
2022/04/15 09:42:53;;;;;;;9.85;7.37;;;;;;;17.99;83.38;101287.62;1750634;82;21060;-59
2022/04/15 09:45:30;;;;;;;12.47;7.25;;;;;;;18.49;80.08;101282.72;1738075;82;21042;-61
2022/04/15 09:48:00;;;;;;;10.85;7.30;;;;;;;18.53;78.23;101281.59;1738316;82;21023;-58
2022/04/15 09:50:37;;;;;;;12.07;7.12;;;;;;;18.61;79.50;101287.13;1737726;82;21102;-60
2022/04/15 09:53:19;;;;;;;10.20;7.35;;;;;;;18.70;82.24;101287.47;1738211;82;21019;-60
2022/04/15 09:55:48;;;;;;;10.93;7.37;;;;;;;18.52;79.10;101294.72;1737999;82;21003;-60
2022/04/15 09:58:28;;;;;;;9.48;7.33;;;;;;;18.55;81.32;101295.36;1725629;82;20984;-60
2022/04/15 10:00:51;;;;;;;11.70;7.65;;;;;;;18.57;79.29;101290.02;1708178;84;21524;-59
2022/04/15 10:03:23;;;;;;;10.08;7.28;;;;;;;18.48;80.35;101283.64;1709000;84;21071;-60
2022/04/15 10:05:54;;;;;;;10.82;7.10;;;;;;;18.86;80.40;101286.84;1722042;83;21559;-59
2022/04/15 10:08:25;;;;;;;12.15;7.58;;;;;;;18.90;77.25;101276.57;1709014;84;21063;-59
2022/04/15 10:10:55;;;;;;;11.55;7.90;;;;;;;18.84;77.78;101279.59;1747449;80;21508;-60
2022/04/15 10:13:28;;;;;;;12.43;8.15;;;;;;;18.88;76.66;101282.36;1737877;82;21133;-60
2022/04/15 10:15:55;;;;;;;9.45;7.70;;;;;;;18.71;78.90;101285.20;1738060;82;21143;-59
2022/04/15 10:18:25;;;;;;;9.45;8.05;;;;;;;18.56;78.41;101281.84;1732670;81;20975;-60
2022/04/15 10:20:54;;;;;;;11.53;8.63;;;;;;;18.59;79.16;101279.88;1737973;82;21087;-61
2022/04/15 10:23:22;;;;;;;11.93;9.20;;;;;;;18.44;80.93;101274.35;1738105;82;21073;-60
2022/04/15 10:25:52;;;;;;;12.10;9.10;;;;;;;18.33;81.41;101275.05;1735352;82;20987;-60
2022/04/15 10:28:24;;;;;;;10.53;8.68;;;;;;;18.24;82.65;101270.89;1707307;84;21162;-61
2022/04/15 10:31:13;;;;;;;13.75;9.58;;;;;;;18.06;82.14;101281.55;1707064;84;21103;-60
2022/04/15 10:33:40;;;;;;;14.25;8.65;;;;;;;18.11;85.10;101276.89;1724215;81;21046;-60
2022/04/15 10:36:23;;;;;;;11.33;9.03;;;;;;;18.36;85.21;101272.71;1708500;84;21594;-60
2022/04/15 10:39:09;;;;;;;13.13;8.50;;;;;;;18.17;85.44;101265.25;1710822;82;21037;-60
2022/04/15 10:41:53;;;;;;;11.00;8.50;;;;;;;18.14;84.45;101269.34;1730729;82;21065;-59
2022/04/15 10:44:41;;;;;;;10.23;8.45;;;;;;;18.28;85.33;101264.08;1726421;82;21046;-59
2022/04/15 10:47:13;;;;;;;14.00;7.92;;;;;;;18.49;85.13;101262.31;1726231;82;21098;-59
2022/04/15 10:50:03;;;;;;;12.30;7.80;;;;;;;18.46;82.01;101263.83;1700965;83;21010;-60
2022/04/15 10:52:36;;;;;;;9.75;7.47;;;;;;;18.68;82.57;101262.78;1726156;82;21050;-60
2022/04/15 10:55:07;;;;;;;11.88;8.05;;;;;;;18.58;81.46;101259.94;1726547;82;21013;-60
2022/04/15 10:57:43;;;;;;;12.45;7.35;;;;;;;18.37;82.06;101259.58;1726396;82;21034;-59
2022/04/15 11:03:23;;;;;;;8.98;7.40;;;;;;;18.96;81.85;101252.67;1726476;82;21080;-59
2022/04/15 11:05:57;;;;;;;12.45;8.05;;;;;;;19.58;78.64;101249.74;1726499;82;21058;-60
2022/04/15 11:08:27;;;;;;;9.08;7.33;;;;;;;19.12;76.26;101249.01;1726393;82;21042;-60
2022/04/15 11:11:03;;;;;;;8.10;6.67;;;;;;;19.26;78.08;101243.70;1888480;75;22562;-60
2022/04/15 11:13:49;;;;;;;9.30;7.12;;;;;;;19.60;78.66;101238.72;1865034;77;21514;-60
2022/04/15 11:16:18;;;;;;;9.28;7.35;;;;;;;19.74;75.96;101250.36;1865113;77;21510;-60
2022/04/15 11:18:56;;;;;;;12.13;8.33;;;;;;;19.64;74.24;101259.77;1853509;76;21034;-61
2022/04/15 11:21:33;;;;;;;11.00;7.53;;;;;;;19.34;74.48;101254.45;1831201;78;21002;-60
2022/04/15 11:24:09;;;;;;;10.08;8.20;;;;;;;19.24;77.26;101248.64;1831884;77;21085;-60